sensor_id;sensor_type;location;lat;lon;timestamp;P1;durP1;ratioP1;P2;durP2;ratioP2
5507;SDS011;2776;51.046;6.772;2022-11-20T00:02:10;16.87;;;11.13;;
5507;SDS011;2776;51.046;6.772;2022-11-20T00:04:37;16.53;;;11.20;;
5507;SDS011;2776;51.046;6.772;2022-11-20T00:07:04;16.90;;;10.63;;
5507;SDS011;2776;51.046;6.772;2022-11-20T00:09:31;14.90;;;11.07;;
5507;SDS011;2776;51.046;6.772;2022-11-20T00:11:57;14.43;;;10.23;;
5507;SDS011;2776;51.046;6.772;2022-11-20T00:14:24;16.60;;;11.20;;
5507;SDS011;2776;51.046;6.772;2022-11-20T00:16:52;14.27;;;10.77;;
5507;SDS011;2776;51.046;6.772;2022-11-20T00:19:19;15.53;;;11.10;;
5507;SDS011;2776;51.046;6.772;2022-11-20T00:21:45;14.43;;;10.77;;
5507;SDS011;2776;51.046;6.772;2022-11-20T00:24:12;15.80;;;11.33;;
5507;SDS011;2776;51.046;6.772;2022-11-20T00:26:39;15.60;;;10.97;;
5507;SDS011;2776;51.046;6.772;2022-11-20T00:29:08;16.10;;;12.07;;
5507;SDS011;2776;51.046;6.772;2022-11-20T00:31:35;17.03;;;11.63;;
5507;SDS011;2776;51.046;6.772;2022-11-20T00:34:03;14.67;;;11.13;;
5507;SDS011;2776;51.046;6.772;2022-11-20T00:36:31;16.43;;;11.33;;
5507;SDS011;2776;51.046;6.772;2022-11-20T00:39:00;16.53;;;11.50;;
5507;SDS011;2776;51.046;6.772;2022-11-20T00:41:27;15.00;;;11.17;;
5507;SDS011;2776;51.046;6.772;2022-11-20T00:43:55;15.77;;;11.53;;
5507;SDS011;2776;51.046;6.772;2022-11-20T00:46:24;15.70;;;11.20;;
5507;SDS011;2776;51.046;6.772;2022-11-20T00:48:51;14.83;;;10.97;;
5507;SDS011;2776;51.046;6.772;2022-11-20T00:51:20;14.90;;;11.13;;
5507;SDS011;2776;51.046;6.772;2022-11-20T00:53:48;14.30;;;10.77;;
5507;SDS011;2776;51.046;6.772;2022-11-20T00:56:15;17.57;;;11.87;;
5507;SDS011;2776;51.046;6.772;2022-11-20T00:58:43;15.37;;;11.43;;
5507;SDS011;2776;51.046;6.772;2022-11-20T01:01:13;15.57;;;11.23;;
5507;SDS011;2776;51.046;6.772;2022-11-20T01:03:41;14.67;;;10.83;;
5507;SDS011;2776;51.046;6.772;2022-11-20T01:06:09;15.07;;;11.20;;
5507;SDS011;2776;51.046;6.772;2022-11-20T01:08:38;16.00;;;11.13;;
5507;SDS011;2776;51.046;6.772;2022-11-20T01:11:07;16.20;;;10.47;;
5507;SDS011;2776;51.046;6.772;2022-11-20T01:13:36;15.97;;;11.30;;
5507;SDS011;2776;51.046;6.772;2022-11-20T01:16:03;14.93;;;11.80;;
5507;SDS011;2776;51.046;6.772;2022-11-20T01:18:30;18.90;;;11.93;;
5507;SDS011;2776;51.046;6.772;2022-11-20T01:20:59;17.57;;;11.67;;
5507;SDS011;2776;51.046;6.772;2022-11-20T01:23:29;15.40;;;11.17;;
5507;SDS011;2776;51.046;6.772;2022-11-20T01:25:58;13.33;;;10.07;;
5507;SDS011;2776;51.046;6.772;2022-11-20T01:28:26;15.10;;;11.20;;
5507;SDS011;2776;51.046;6.772;2022-11-20T01:30:52;17.60;;;11.13;;
5507;SDS011;2776;51.046;6.772;2022-11-20T01:33:19;15.37;;;10.83;;
5507;SDS011;2776;51.046;6.772;2022-11-20T01:35:46;16.03;;;11.23;;
5507;SDS011;2776;51.046;6.772;2022-11-20T01:38:12;17.07;;;12.07;;
5507;SDS011;2776;51.046;6.772;2022-11-20T01:40:41;16.40;;;11.07;;
5507;SDS011;2776;51.046;6.772;2022-11-20T01:43:12;16.33;;;11.77;;
5507;SDS011;2776;51.046;6.772;2022-11-20T01:45:55;15.70;;;11.30;;
5507;SDS011;2776;51.046;6.772;2022-11-20T01:48:25;14.63;;;10.77;;
5507;SDS011;2776;51.046;6.772;2022-11-20T01:50:55;15.10;;;10.90;;
5507;SDS011;2776;51.046;6.772;2022-11-20T01:53:24;14.93;;;10.40;;
5507;SDS011;2776;51.046;6.772;2022-11-20T01:55:55;15.10;;;10.90;;
5507;SDS011;2776;51.046;6.772;2022-11-20T01:58:25;16.00;;;10.93;;
5507;SDS011;2776;51.046;6.772;2022-11-20T02:00:58;15.43;;;11.13;;
5507;SDS011;2776;51.046;6.772;2022-11-20T02:03:25;14.37;;;10.53;;
5507;SDS011;2776;51.046;6.772;2022-11-20T02:05:54;16.97;;;10.43;;
5507;SDS011;2776;51.046;6.772;2022-11-20T02:08:26;14.50;;;10.10;;
5507;SDS011;2776;51.046;6.772;2022-11-20T02:10:54;15.00;;;11.40;;
5507;SDS011;2776;51.046;6.772;2022-11-20T02:13:21;15.60;;;11.17;;
5507;SDS011;2776;51.046;6.772;2022-11-20T02:16:09;15.10;;;11.07;;
5507;SDS011;2776;51.046;6.772;2022-11-20T02:18:45;14.97;;;10.30;;
5507;SDS011;2776;51.046;6.772;2022-11-20T02:21:14;16.53;;;11.00;;
5507;SDS011;2776;51.046;6.772;2022-11-20T02:24:04;16.77;;;11.70;;
5507;SDS011;2776;51.046;6.772;2022-11-20T02:26:35;15.37;;;10.57;;
5507;SDS011;2776;51.046;6.772;2022-11-20T02:29:10;16.43;;;11.03;;
5507;SDS011;2776;51.046;6.772;2022-11-20T02:31:37;15.50;;;11.13;;
5507;SDS011;2776;51.046;6.772;2022-11-20T02:34:06;15.40;;;11.03;;
5507;SDS011;2776;51.046;6.772;2022-11-20T02:36:34;14.50;;;11.00;;
5507;SDS011;2776;51.046;6.772;2022-11-20T02:39:03;15.97;;;10.97;;
5507;SDS011;2776;51.046;6.772;2022-11-20T02:41:31;17.20;;;11.10;;
5507;SDS011;2776;51.046;6.772;2022-11-20T02:43:59;15.77;;;11.60;;
5507;SDS011;2776;51.046;6.772;2022-11-20T02:46:25;17.17;;;11.70;;
5507;SDS011;2776;51.046;6.772;2022-11-20T02:48:52;15.43;;;11.07;;
5507;SDS011;2776;51.046;6.772;2022-11-20T02:51:19;16.00;;;11.97;;
5507;SDS011;2776;51.046;6.772;2022-11-20T02:53:45;17.30;;;11.33;;
5507;SDS011;2776;51.046;6.772;2022-11-20T02:56:13;16.63;;;11.53;;
5507;SDS011;2776;51.046;6.772;2022-11-20T02:58:40;16.53;;;12.23;;
5507;SDS011;2776;51.046;6.772;2022-11-20T03:01:07;18.17;;;11.57;;
5507;SDS011;2776;51.046;6.772;2022-11-20T03:03:33;16.07;;;11.07;;
5507;SDS011;2776;51.046;6.772;2022-11-20T03:06:00;16.00;;;12.13;;
5507;SDS011;2776;51.046;6.772;2022-11-20T03:08:27;18.50;;;12.10;;
5507;SDS011;2776;51.046;6.772;2022-11-20T03:10:54;16.70;;;11.70;;
5507;SDS011;2776;51.046;6.772;2022-11-20T03:13:22;16.30;;;11.27;;
5507;SDS011;2776;51.046;6.772;2022-11-20T03:15:50;17.90;;;11.80;;
5507;SDS011;2776;51.046;6.772;2022-11-20T03:18:17;16.60;;;12.57;;
5507;SDS011;2776;51.046;6.772;2022-11-20T03:20:44;16.17;;;11.87;;
5507;SDS011;2776;51.046;6.772;2022-11-20T03:23:10;16.77;;;11.27;;
5507;SDS011;2776;51.046;6.772;2022-11-20T03:25:37;16.60;;;12.03;;
5507;SDS011;2776;51.046;6.772;2022-11-20T03:28:04;18.53;;;11.93;;
5507;SDS011;2776;51.046;6.772;2022-11-20T03:30:32;16.83;;;11.57;;
5507;SDS011;2776;51.046;6.772;2022-11-20T03:32:58;15.97;;;11.77;;
5507;SDS011;2776;51.046;6.772;2022-11-20T03:35:25;15.53;;;12.33;;
5507;SDS011;2776;51.046;6.772;2022-11-20T03:37:52;16.23;;;12.10;;
5507;SDS011;2776;51.046;6.772;2022-11-20T03:40:19;16.93;;;11.87;;
5507;SDS011;2776;51.046;6.772;2022-11-20T03:42:45;17.17;;;11.80;;
5507;SDS011;2776;51.046;6.772;2022-11-20T03:45:12;17.83;;;11.63;;
5507;SDS011;2776;51.046;6.772;2022-11-20T03:47:40;18.73;;;13.47;;
5507;SDS011;2776;51.046;6.772;2022-11-20T03:50:08;15.93;;;11.77;;
5507;SDS011;2776;51.046;6.772;2022-11-20T03:52:35;15.83;;;11.77;;
5507;SDS011;2776;51.046;6.772;2022-11-20T03:55:02;14.90;;;11.47;;
5507;SDS011;2776;51.046;6.772;2022-11-20T03:57:29;16.53;;;11.93;;
5507;SDS011;2776;51.046;6.772;2022-11-20T03:59:56;16.97;;;11.67;;
5507;SDS011;2776;51.046;6.772;2022-11-20T04:02:23;17.43;;;12.60;;
5507;SDS011;2776;51.046;6.772;2022-11-20T04:04:51;16.53;;;11.83;;
5507;SDS011;2776;51.046;6.772;2022-11-20T04:07:18;17.13;;;12.50;;
5507;SDS011;2776;51.046;6.772;2022-11-20T04:09:44;16.33;;;12.77;;
5507;SDS011;2776;51.046;6.772;2022-11-20T04:12:11;16.60;;;12.50;;
5507;SDS011;2776;51.046;6.772;2022-11-20T04:14:38;15.70;;;12.17;;
5507;SDS011;2776;51.046;6.772;2022-11-20T04:17:04;16.93;;;11.97;;
5507;SDS011;2776;51.046;6.772;2022-11-20T04:19:31;18.93;;;11.97;;
5507;SDS011;2776;51.046;6.772;2022-11-20T04:21:59;15.00;;;11.00;;
5507;SDS011;2776;51.046;6.772;2022-11-20T04:24:26;17.00;;;12.57;;
5507;SDS011;2776;51.046;6.772;2022-11-20T04:26:52;16.10;;;12.60;;
5507;SDS011;2776;51.046;6.772;2022-11-20T04:29:19;16.53;;;12.37;;
5507;SDS011;2776;51.046;6.772;2022-11-20T04:31:46;15.50;;;11.43;;
5507;SDS011;2776;51.046;6.772;2022-11-20T04:34:12;17.77;;;12.13;;
5507;SDS011;2776;51.046;6.772;2022-11-20T04:36:39;17.23;;;13.03;;
5507;SDS011;2776;51.046;6.772;2022-11-20T04:39:13;16.77;;;11.83;;
5507;SDS011;2776;51.046;6.772;2022-11-20T04:41:41;14.97;;;10.83;;
5507;SDS011;2776;51.046;6.772;2022-11-20T04:44:08;17.77;;;12.60;;
5507;SDS011;2776;51.046;6.772;2022-11-20T04:46:35;18.23;;;11.70;;
5507;SDS011;2776;51.046;6.772;2022-11-20T04:49:03;17.87;;;12.67;;
5507;SDS011;2776;51.046;6.772;2022-11-20T04:51:30;17.50;;;12.03;;
5507;SDS011;2776;51.046;6.772;2022-11-20T04:53:57;15.20;;;12.30;;
5507;SDS011;2776;51.046;6.772;2022-11-20T04:56:25;17.97;;;11.77;;
5507;SDS011;2776;51.046;6.772;2022-11-20T04:58:52;18.37;;;12.60;;
5507;SDS011;2776;51.046;6.772;2022-11-20T05:01:19;15.63;;;12.03;;
5507;SDS011;2776;51.046;6.772;2022-11-20T05:03:47;18.13;;;11.97;;
5507;SDS011;2776;51.046;6.772;2022-11-20T05:06:17;18.43;;;12.50;;
5507;SDS011;2776;51.046;6.772;2022-11-20T05:08:44;14.83;;;11.73;;
5507;SDS011;2776;51.046;6.772;2022-11-20T05:11:12;16.63;;;12.20;;
5507;SDS011;2776;51.046;6.772;2022-11-20T05:13:41;15.67;;;11.73;;
5507;SDS011;2776;51.046;6.772;2022-11-20T05:16:09;18.20;;;12.37;;
5507;SDS011;2776;51.046;6.772;2022-11-20T05:18:37;16.43;;;11.70;;
5507;SDS011;2776;51.046;6.772;2022-11-20T05:21:04;15.33;;;11.83;;
5507;SDS011;2776;51.046;6.772;2022-11-20T05:23:32;16.50;;;11.63;;
5507;SDS011;2776;51.046;6.772;2022-11-20T05:25:59;17.10;;;11.07;;
5507;SDS011;2776;51.046;6.772;2022-11-20T05:28:26;16.73;;;12.00;;
5507;SDS011;2776;51.046;6.772;2022-11-20T05:30:55;17.80;;;12.60;;
5507;SDS011;2776;51.046;6.772;2022-11-20T05:33:22;16.67;;;12.03;;
5507;SDS011;2776;51.046;6.772;2022-11-20T05:35:49;17.63;;;12.90;;
5507;SDS011;2776;51.046;6.772;2022-11-20T05:38:15;17.83;;;12.77;;
5507;SDS011;2776;51.046;6.772;2022-11-20T05:40:42;15.53;;;11.63;;
5507;SDS011;2776;51.046;6.772;2022-11-20T05:43:09;19.40;;;12.57;;
5507;SDS011;2776;51.046;6.772;2022-11-20T05:45:35;16.40;;;12.20;;
5507;SDS011;2776;51.046;6.772;2022-11-20T05:48:04;17.27;;;11.97;;
5507;SDS011;2776;51.046;6.772;2022-11-20T05:50:30;17.17;;;11.77;;
5507;SDS011;2776;51.046;6.772;2022-11-20T05:52:57;16.17;;;11.70;;
5507;SDS011;2776;51.046;6.772;2022-11-20T05:55:25;20.73;;;12.00;;
5507;SDS011;2776;51.046;6.772;2022-11-20T05:57:52;16.87;;;12.20;;
5507;SDS011;2776;51.046;6.772;2022-11-20T06:00:19;16.27;;;12.13;;
5507;SDS011;2776;51.046;6.772;2022-11-20T06:02:46;17.33;;;12.00;;
5507;SDS011;2776;51.046;6.772;2022-11-20T06:05:14;16.67;;;12.07;;
5507;SDS011;2776;51.046;6.772;2022-11-20T06:07:41;17.83;;;12.27;;
5507;SDS011;2776;51.046;6.772;2022-11-20T06:10:08;19.70;;;13.33;;
5507;SDS011;2776;51.046;6.772;2022-11-20T06:12:35;17.80;;;13.13;;
5507;SDS011;2776;51.046;6.772;2022-11-20T06:15:02;18.20;;;13.50;;
5507;SDS011;2776;51.046;6.772;2022-11-20T06:17:30;18.87;;;13.17;;
5507;SDS011;2776;51.046;6.772;2022-11-20T06:19:56;19.97;;;13.87;;
5507;SDS011;2776;51.046;6.772;2022-11-20T06:22:24;18.57;;;13.40;;
5507;SDS011;2776;51.046;6.772;2022-11-20T06:24:51;17.97;;;12.80;;
5507;SDS011;2776;51.046;6.772;2022-11-20T06:27:18;16.63;;;12.93;;
5507;SDS011;2776;51.046;6.772;2022-11-20T06:29:44;20.20;;;13.40;;
5507;SDS011;2776;51.046;6.772;2022-11-20T06:32:11;21.40;;;14.53;;
5507;SDS011;2776;51.046;6.772;2022-11-20T06:34:38;20.70;;;14.13;;
5507;SDS011;2776;51.046;6.772;2022-11-20T06:37:04;18.17;;;12.90;;
5507;SDS011;2776;51.046;6.772;2022-11-20T06:39:32;19.20;;;13.40;;
5507;SDS011;2776;51.046;6.772;2022-11-20T06:41:59;18.57;;;13.10;;
5507;SDS011;2776;51.046;6.772;2022-11-20T06:44:26;15.97;;;12.10;;
5507;SDS011;2776;51.046;6.772;2022-11-20T06:46:52;18.37;;;12.67;;
5507;SDS011;2776;51.046;6.772;2022-11-20T06:49:19;20.03;;;12.70;;
5507;SDS011;2776;51.046;6.772;2022-11-20T06:51:46;18.07;;;12.57;;
5507;SDS011;2776;51.046;6.772;2022-11-20T06:54:12;19.30;;;13.10;;
5507;SDS011;2776;51.046;6.772;2022-11-20T06:56:40;19.73;;;13.53;;
5507;SDS011;2776;51.046;6.772;2022-11-20T06:59:07;17.60;;;12.40;;
5507;SDS011;2776;51.046;6.772;2022-11-20T07:01:34;16.97;;;11.77;;
5507;SDS011;2776;51.046;6.772;2022-11-20T07:04:01;15.97;;;11.93;;
5507;SDS011;2776;51.046;6.772;2022-11-20T07:06:28;19.73;;;12.97;;
5507;SDS011;2776;51.046;6.772;2022-11-20T07:08:55;18.67;;;12.20;;
5507;SDS011;2776;51.046;6.772;2022-11-20T07:11:21;16.97;;;11.63;;
5507;SDS011;2776;51.046;6.772;2022-11-20T07:13:50;17.10;;;11.83;;
5507;SDS011;2776;51.046;6.772;2022-11-20T07:16:17;20.30;;;12.63;;
5507;SDS011;2776;51.046;6.772;2022-11-20T07:18:44;17.43;;;12.23;;
5507;SDS011;2776;51.046;6.772;2022-11-20T07:21:10;20.13;;;12.67;;
5507;SDS011;2776;51.046;6.772;2022-11-20T07:23:37;16.33;;;11.73;;
5507;SDS011;2776;51.046;6.772;2022-11-20T07:26:04;17.00;;;12.27;;
5507;SDS011;2776;51.046;6.772;2022-11-20T07:28:32;14.57;;;10.80;;
5507;SDS011;2776;51.046;6.772;2022-11-20T07:31:00;14.77;;;11.07;;
5507;SDS011;2776;51.046;6.772;2022-11-20T07:33:27;15.70;;;11.20;;
5507;SDS011;2776;51.046;6.772;2022-11-20T07:35:54;18.80;;;12.17;;
5507;SDS011;2776;51.046;6.772;2022-11-20T07:38:21;16.07;;;11.70;;
5507;SDS011;2776;51.046;6.772;2022-11-20T07:40:48;17.80;;;12.13;;
5507;SDS011;2776;51.046;6.772;2022-11-20T07:43:14;15.07;;;10.93;;
5507;SDS011;2776;51.046;6.772;2022-11-20T07:45:41;18.63;;;12.33;;
5507;SDS011;2776;51.046;6.772;2022-11-20T07:48:09;19.20;;;12.23;;
5507;SDS011;2776;51.046;6.772;2022-11-20T07:50:36;18.17;;;11.87;;
5507;SDS011;2776;51.046;6.772;2022-11-20T07:53:03;17.17;;;12.20;;
5507;SDS011;2776;51.046;6.772;2022-11-20T07:55:30;18.50;;;13.10;;
5507;SDS011;2776;51.046;6.772;2022-11-20T07:57:58;16.50;;;12.43;;
5507;SDS011;2776;51.046;6.772;2022-11-20T08:00:25;17.40;;;12.47;;
5507;SDS011;2776;51.046;6.772;2022-11-20T08:02:52;17.17;;;13.50;;
5507;SDS011;2776;51.046;6.772;2022-11-20T08:05:21;18.50;;;12.33;;
5507;SDS011;2776;51.046;6.772;2022-11-20T08:07:48;20.27;;;14.17;;
5507;SDS011;2776;51.046;6.772;2022-11-20T08:10:15;18.90;;;11.90;;
5507;SDS011;2776;51.046;6.772;2022-11-20T08:12:45;18.97;;;12.60;;
5507;SDS011;2776;51.046;6.772;2022-11-20T08:15:30;18.13;;;12.73;;
5507;SDS011;2776;51.046;6.772;2022-11-20T08:18:01;17.27;;;12.87;;
5507;SDS011;2776;51.046;6.772;2022-11-20T08:20:30;17.63;;;12.37;;
5507;SDS011;2776;51.046;6.772;2022-11-20T08:22:57;19.47;;;13.53;;
5507;SDS011;2776;51.046;6.772;2022-11-20T08:25:25;20.57;;;13.80;;
5507;SDS011;2776;51.046;6.772;2022-11-20T08:27:52;20.23;;;13.60;;
5507;SDS011;2776;51.046;6.772;2022-11-20T08:30:19;21.07;;;14.10;;
5507;SDS011;2776;51.046;6.772;2022-11-20T08:32:45;19.70;;;13.47;;
5507;SDS011;2776;51.046;6.772;2022-11-20T08:35:12;21.73;;;13.67;;
5507;SDS011;2776;51.046;6.772;2022-11-20T08:37:40;20.73;;;14.93;;
5507;SDS011;2776;51.046;6.772;2022-11-20T08:40:08;18.40;;;13.20;;
5507;SDS011;2776;51.046;6.772;2022-11-20T08:42:35;19.37;;;13.43;;
5507;SDS011;2776;51.046;6.772;2022-11-20T08:45:03;17.87;;;12.33;;
5507;SDS011;2776;51.046;6.772;2022-11-20T08:47:30;18.90;;;11.87;;
5507;SDS011;2776;51.046;6.772;2022-11-20T08:49:57;17.47;;;11.93;;
5507;SDS011;2776;51.046;6.772;2022-11-20T08:52:24;17.90;;;12.30;;
5507;SDS011;2776;51.046;6.772;2022-11-20T08:54:52;20.40;;;13.27;;
5507;SDS011;2776;51.046;6.772;2022-11-20T08:57:18;19.47;;;13.30;;
5507;SDS011;2776;51.046;6.772;2022-11-20T08:59:45;17.90;;;12.20;;
5507;SDS011;2776;51.046;6.772;2022-11-20T09:02:12;18.30;;;12.13;;
5507;SDS011;2776;51.046;6.772;2022-11-20T09:04:38;18.40;;;12.23;;
5507;SDS011;2776;51.046;6.772;2022-11-20T09:07:05;16.17;;;11.80;;
5507;SDS011;2776;51.046;6.772;2022-11-20T09:09:32;19.17;;;11.60;;
5507;SDS011;2776;51.046;6.772;2022-11-20T09:12:00;15.73;;;11.27;;
5507;SDS011;2776;51.046;6.772;2022-11-20T09:14:27;18.03;;;12.57;;
5507;SDS011;2776;51.046;6.772;2022-11-20T09:16:55;17.60;;;11.77;;
5507;SDS011;2776;51.046;6.772;2022-11-20T09:19:21;17.00;;;11.67;;
5507;SDS011;2776;51.046;6.772;2022-11-20T09:21:50;16.80;;;11.63;;
5507;SDS011;2776;51.046;6.772;2022-11-20T09:24:17;16.13;;;11.13;;
5507;SDS011;2776;51.046;6.772;2022-11-20T09:26:45;15.80;;;10.63;;
5507;SDS011;2776;51.046;6.772;2022-11-20T09:29:14;17.23;;;10.20;;
5507;SDS011;2776;51.046;6.772;2022-11-20T09:31:40;12.90;;;9.50;;
5507;SDS011;2776;51.046;6.772;2022-11-20T09:34:07;14.43;;;10.07;;
5507;SDS011;2776;51.046;6.772;2022-11-20T09:36:34;14.43;;;10.37;;
5507;SDS011;2776;51.046;6.772;2022-11-20T09:39:01;12.80;;;9.13;;
5507;SDS011;2776;51.046;6.772;2022-11-20T09:41:36;15.70;;;10.30;;
5507;SDS011;2776;51.046;6.772;2022-11-20T09:44:32;16.40;;;10.50;;
5507;SDS011;2776;51.046;6.772;2022-11-20T09:47:07;15.87;;;10.47;;
5507;SDS011;2776;51.046;6.772;2022-11-20T09:49:42;15.93;;;10.93;;
5507;SDS011;2776;51.046;6.772;2022-11-20T09:52:29;16.13;;;11.30;;
5507;SDS011;2776;51.046;6.772;2022-11-20T09:55:03;15.07;;;10.63;;
5507;SDS011;2776;51.046;6.772;2022-11-20T09:57:35;17.50;;;12.03;;
5507;SDS011;2776;51.046;6.772;2022-11-20T10:00:06;17.93;;;12.90;;
5507;SDS011;2776;51.046;6.772;2022-11-20T10:02:37;19.13;;;12.67;;
5507;SDS011;2776;51.046;6.772;2022-11-20T10:05:10;17.33;;;11.60;;
5507;SDS011;2776;51.046;6.772;2022-11-20T10:07:41;18.93;;;12.03;;
5507;SDS011;2776;51.046;6.772;2022-11-20T10:10:15;18.73;;;12.47;;
5507;SDS011;2776;51.046;6.772;2022-11-20T10:12:50;19.47;;;12.70;;
5507;SDS011;2776;51.046;6.772;2022-11-20T10:15:27;21.93;;;14.07;;
5507;SDS011;2776;51.046;6.772;2022-11-20T10:18:07;21.70;;;13.87;;
5507;SDS011;2776;51.046;6.772;2022-11-20T10:20:43;26.47;;;14.60;;
5507;SDS011;2776;51.046;6.772;2022-11-20T10:23:23;24.03;;;14.33;;
5507;SDS011;2776;51.046;6.772;2022-11-20T10:26:02;25.20;;;15.63;;
5507;SDS011;2776;51.046;6.772;2022-11-20T10:28:34;22.00;;;14.37;;
5507;SDS011;2776;51.046;6.772;2022-11-20T10:31:17;22.40;;;15.00;;
5507;SDS011;2776;51.046;6.772;2022-11-20T10:33:53;23.70;;;15.30;;
5507;SDS011;2776;51.046;6.772;2022-11-20T10:36:23;23.93;;;14.43;;
5507;SDS011;2776;51.046;6.772;2022-11-20T10:38:54;22.77;;;15.37;;
5507;SDS011;2776;51.046;6.772;2022-11-20T10:41:26;22.67;;;14.13;;
5507;SDS011;2776;51.046;6.772;2022-11-20T10:43:59;23.23;;;14.80;;
5507;SDS011;2776;51.046;6.772;2022-11-20T10:46:32;22.53;;;15.30;;
5507;SDS011;2776;51.046;6.772;2022-11-20T10:49:04;21.17;;;13.80;;
5507;SDS011;2776;51.046;6.772;2022-11-20T10:51:38;24.53;;;14.97;;
5507;SDS011;2776;51.046;6.772;2022-11-20T10:54:17;22.23;;;14.17;;
5507;SDS011;2776;51.046;6.772;2022-11-20T10:56:50;22.07;;;14.60;;
5507;SDS011;2776;51.046;6.772;2022-11-20T11:02:16;23.77;;;15.03;;
5507;SDS011;2776;51.046;6.772;2022-11-20T11:04:45;23.63;;;14.33;;
5507;SDS011;2776;51.046;6.772;2022-11-20T11:07:14;22.37;;;13.63;;
5507;SDS011;2776;51.046;6.772;2022-11-20T11:09:44;22.93;;;14.60;;
5507;SDS011;2776;51.046;6.772;2022-11-20T11:12:14;22.53;;;14.70;;
5507;SDS011;2776;51.046;6.772;2022-11-20T11:14:44;25.00;;;13.50;;
5507;SDS011;2776;51.046;6.772;2022-11-20T11:17:21;21.70;;;13.80;;
5507;SDS011;2776;51.046;6.772;2022-11-20T11:20:05;22.10;;;14.43;;
5507;SDS011;2776;51.046;6.772;2022-11-20T11:22:42;21.43;;;13.07;;
5507;SDS011;2776;51.046;6.772;2022-11-20T11:25:17;20.43;;;13.97;;
5507;SDS011;2776;51.046;6.772;2022-11-20T11:27:47;20.80;;;14.67;;
5507;SDS011;2776;51.046;6.772;2022-11-20T11:30:14;20.50;;;14.00;;
5507;SDS011;2776;51.046;6.772;2022-11-20T11:32:44;20.07;;;12.67;;
5507;SDS011;2776;51.046;6.772;2022-11-20T11:35:24;20.83;;;13.03;;
5507;SDS011;2776;51.046;6.772;2022-11-20T11:37:53;21.63;;;13.13;;
5507;SDS011;2776;51.046;6.772;2022-11-20T11:40:27;20.57;;;13.47;;
5507;SDS011;2776;51.046;6.772;2022-11-20T11:42:57;20.70;;;13.73;;
5507;SDS011;2776;51.046;6.772;2022-11-20T11:45:26;21.00;;;13.10;;
5507;SDS011;2776;51.046;6.772;2022-11-20T11:47:54;19.07;;;13.40;;
5507;SDS011;2776;51.046;6.772;2022-11-20T11:50:23;22.03;;;14.40;;
5507;SDS011;2776;51.046;6.772;2022-11-20T11:52:56;21.07;;;14.23;;
5507;SDS011;2776;51.046;6.772;2022-11-20T11:55:31;22.03;;;14.37;;
5507;SDS011;2776;51.046;6.772;2022-11-20T11:58:08;22.07;;;14.43;;
5507;SDS011;2776;51.046;6.772;2022-11-20T12:00:41;22.37;;;14.57;;
5507;SDS011;2776;51.046;6.772;2022-11-20T12:03:18;21.97;;;14.47;;
5507;SDS011;2776;51.046;6.772;2022-11-20T12:05:49;23.00;;;14.37;;
5507;SDS011;2776;51.046;6.772;2022-11-20T12:08:21;25.20;;;15.20;;
5507;SDS011;2776;51.046;6.772;2022-11-20T12:10:53;23.00;;;14.57;;
5507;SDS011;2776;51.046;6.772;2022-11-20T12:13:30;23.70;;;15.63;;
5507;SDS011;2776;51.046;6.772;2022-11-20T12:16:09;23.27;;;15.00;;
5507;SDS011;2776;51.046;6.772;2022-11-20T12:18:40;24.07;;;15.07;;
5507;SDS011;2776;51.046;6.772;2022-11-20T12:21:21;21.90;;;14.87;;
5507;SDS011;2776;51.046;6.772;2022-11-20T12:24:03;22.20;;;14.47;;
5507;SDS011;2776;51.046;6.772;2022-11-20T12:27:02;21.20;;;14.00;;
5507;SDS011;2776;51.046;6.772;2022-11-20T12:29:43;22.17;;;14.17;;
5507;SDS011;2776;51.046;6.772;2022-11-20T12:32:33;23.30;;;15.17;;
5507;SDS011;2776;51.046;6.772;2022-11-20T12:35:28;23.40;;;14.40;;
5507;SDS011;2776;51.046;6.772;2022-11-20T12:38:13;22.57;;;15.07;;
5507;SDS011;2776;51.046;6.772;2022-11-20T12:40:56;23.10;;;14.77;;
5507;SDS011;2776;51.046;6.772;2022-11-20T12:43:35;22.03;;;15.20;;
5507;SDS011;2776;51.046;6.772;2022-11-20T12:46:29;20.90;;;15.07;;
5507;SDS011;2776;51.046;6.772;2022-11-20T12:49:02;23.03;;;15.70;;
5507;SDS011;2776;51.046;6.772;2022-11-20T12:57:35;23.17;;;15.83;;
5507;SDS011;2776;51.046;6.772;2022-11-20T13:00:09;25.07;;;15.90;;
5507;SDS011;2776;51.046;6.772;2022-11-20T13:06:05;26.40;;;15.80;;
5507;SDS011;2776;51.046;6.772;2022-11-20T13:08:39;27.23;;;16.47;;
5507;SDS011;2776;51.046;6.772;2022-11-20T13:11:09;24.17;;;15.80;;
5507;SDS011;2776;51.046;6.772;2022-11-20T13:13:43;24.87;;;15.60;;
5507;SDS011;2776;51.046;6.772;2022-11-20T13:16:23;24.57;;;15.47;;
5507;SDS011;2776;51.046;6.772;2022-11-20T13:18:54;25.67;;;14.17;;
5507;SDS011;2776;51.046;6.772;2022-11-20T13:21:21;23.63;;;15.27;;
5507;SDS011;2776;51.046;6.772;2022-11-20T13:24:05;25.27;;;14.90;;
5507;SDS011;2776;51.046;6.772;2022-11-20T13:26:32;24.87;;;15.77;;
5507;SDS011;2776;51.046;6.772;2022-11-20T13:29:00;23.27;;;15.27;;
5507;SDS011;2776;51.046;6.772;2022-11-20T13:31:34;24.83;;;15.63;;
5507;SDS011;2776;51.046;6.772;2022-11-20T13:34:11;21.17;;;14.87;;
5507;SDS011;2776;51.046;6.772;2022-11-20T13:36:48;21.87;;;14.47;;
5507;SDS011;2776;51.046;6.772;2022-11-20T13:39:24;22.20;;;15.27;;
5507;SDS011;2776;51.046;6.772;2022-11-20T13:41:53;21.67;;;14.90;;
5507;SDS011;2776;51.046;6.772;2022-11-20T13:44:23;24.83;;;15.50;;
5507;SDS011;2776;51.046;6.772;2022-11-20T13:46:53;23.07;;;15.10;;
5507;SDS011;2776;51.046;6.772;2022-11-20T13:49:22;22.20;;;14.67;;
5507;SDS011;2776;51.046;6.772;2022-11-20T13:51:53;23.73;;;15.40;;
5507;SDS011;2776;51.046;6.772;2022-11-20T13:54:42;21.67;;;14.37;;
5507;SDS011;2776;51.046;6.772;2022-11-20T13:57:25;22.80;;;14.10;;
5507;SDS011;2776;51.046;6.772;2022-11-20T14:00:17;23.53;;;14.67;;
5507;SDS011;2776;51.046;6.772;2022-11-20T14:02:48;21.03;;;15.10;;
5507;SDS011;2776;51.046;6.772;2022-11-20T14:05:25;19.73;;;13.90;;
5507;SDS011;2776;51.046;6.772;2022-11-20T14:07:51;21.30;;;14.77;;
5507;SDS011;2776;51.046;6.772;2022-11-20T14:10:22;23.87;;;14.87;;
5507;SDS011;2776;51.046;6.772;2022-11-20T14:12:50;22.13;;;14.23;;
5507;SDS011;2776;51.046;6.772;2022-11-20T14:15:26;19.63;;;13.97;;
5507;SDS011;2776;51.046;6.772;2022-11-20T14:17:55;20.57;;;14.60;;
5507;SDS011;2776;51.046;6.772;2022-11-20T14:20:23;20.67;;;14.77;;
5507;SDS011;2776;51.046;6.772;2022-11-20T14:22:53;22.13;;;14.90;;
5507;SDS011;2776;51.046;6.772;2022-11-20T14:25:22;23.70;;;14.03;;
5507;SDS011;2776;51.046;6.772;2022-11-20T14:27:52;20.60;;;13.80;;
5507;SDS011;2776;51.046;6.772;2022-11-20T14:30:21;21.03;;;14.67;;
5507;SDS011;2776;51.046;6.772;2022-11-20T14:32:49;20.50;;;14.10;;
5507;SDS011;2776;51.046;6.772;2022-11-20T14:35:19;23.20;;;14.60;;
5507;SDS011;2776;51.046;6.772;2022-11-20T14:37:49;23.17;;;18.30;;
5507;SDS011;2776;51.046;6.772;2022-11-20T14:40:25;21.97;;;16.07;;
5507;SDS011;2776;51.046;6.772;2022-11-20T14:42:54;22.60;;;14.73;;
5507;SDS011;2776;51.046;6.772;2022-11-20T14:45:21;21.03;;;14.07;;
5507;SDS011;2776;51.046;6.772;2022-11-20T14:47:48;25.23;;;15.03;;
5507;SDS011;2776;51.046;6.772;2022-11-20T14:50:17;21.20;;;14.77;;
5507;SDS011;2776;51.046;6.772;2022-11-20T14:52:51;24.60;;;15.37;;
5507;SDS011;2776;51.046;6.772;2022-11-20T14:55:27;20.57;;;14.57;;
5507;SDS011;2776;51.046;6.772;2022-11-20T14:57:55;24.97;;;14.33;;
5507;SDS011;2776;51.046;6.772;2022-11-20T15:00:23;24.20;;;14.53;;
5507;SDS011;2776;51.046;6.772;2022-11-20T15:02:51;19.73;;;14.67;;
5507;SDS011;2776;51.046;6.772;2022-11-20T15:05:18;26.00;;;15.77;;
5507;SDS011;2776;51.046;6.772;2022-11-20T15:07:47;25.53;;;17.93;;
5507;SDS011;2776;51.046;6.772;2022-11-20T15:10:25;20.73;;;14.17;;
5507;SDS011;2776;51.046;6.772;2022-11-20T15:12:54;21.93;;;14.97;;
5507;SDS011;2776;51.046;6.772;2022-11-20T15:15:25;22.77;;;15.03;;
5507;SDS011;2776;51.046;6.772;2022-11-20T15:17:56;23.37;;;15.00;;